Time;durP1;ratioP1;P1;durP2;ratioP2;P2;SDS_P1;SDS_P2;PMS_P1;PMS_P2;Temp;Humidity;BMP_temperature;BMP_pressure;BME280_temperature;BME280_humidity;BME280_pressure;Samples;Min_cycle;Max_cycle;Signal;HPM_P1;HPM_P2
2023/08/03 00:00:19;;;;;;;6.85;2.42;;;;;;;;;;5073583;28;20050;-77
2023/08/03 00:02:46;;;;;;;7.60;2.30;;;;;;;;;;5091711;28;20480;-77
2023/08/03 00:05:17;;;;;;;7.25;2.40;;;;;;;;;;5076811;28;20064;-77
2023/08/03 00:07:43;;;;;;;6.13;2.45;;;;;;;;;;5072448;28;20076;-77
2023/08/03 00:10:09;;;;;;;6.68;2.70;;;;;;;;;;5072522;28;20048;-76
2023/08/03 00:12:39;;;;;;;7.38;2.40;;;;;;;;;;5073389;28;20401;-77
2023/08/03 00:15:05;;;;;;;8.13;2.42;;;;;;;;;;5082707;28;20402;-75
2023/08/03 00:17:32;;;;;;;6.20;2.20;;;;;;;;;;5096488;28;20106;-76
2023/08/03 00:19:59;;;;;;;6.80;2.28;;;;;;;;;;5092218;28;20102;-77
2023/08/03 00:22:25;;;;;;;7.60;2.47;;;;;;;;;;5092238;28;20404;-77
2023/08/03 00:24:52;;;;;;;5.70;2.30;;;;;;;;;;5091505;28;20044;-78
2023/08/03 00:27:18;;;;;;;8.52;2.58;;;;;;;;;;5073865;28;20047;-77
2023/08/03 00:29:44;;;;;;;5.10;2.00;;;;;;;;;;5057614;28;20401;-76
2023/08/03 00:32:10;;;;;;;6.65;2.03;;;;;;;;;;5091864;28;20432;-76
2023/08/03 00:34:37;;;;;;;7.50;2.25;;;;;;;;;;5091274;28;20043;-75
2023/08/03 00:37:03;;;;;;;6.68;2.00;;;;;;;;;;5074146;28;20040;-75
2023/08/03 00:39:29;;;;;;;5.13;1.98;;;;;;;;;;5073527;28;20449;-76
2023/08/03 00:41:55;;;;;;;7.35;2.10;;;;;;;;;;5089829;28;20121;-76
2023/08/03 00:44:21;;;;;;;5.00;1.98;;;;;;;;;;5091817;28;20136;-76
2023/08/03 00:46:48;;;;;;;6.45;2.03;;;;;;;;;;5080710;28;20053;-77
2023/08/03 00:49:14;;;;;;;5.35;1.90;;;;;;;;;;5072042;28;20088;-77
2023/08/03 00:51:40;;;;;;;5.45;1.90;;;;;;;;;;5089898;28;20059;-77
2023/08/03 00:54:07;;;;;;;5.68;2.03;;;;;;;;;;5073818;28;20514;-77
2023/08/03 00:56:34;;;;;;;5.03;1.88;;;;;;;;;;5091935;28;20400;-77
2023/08/03 00:59:01;;;;;;;5.90;1.70;;;;;;;;;;5092359;28;20455;-77
2023/08/03 01:01:27;;;;;;;4.22;1.88;;;;;;;;;;5092141;28;20044;-77
2023/08/03 01:03:54;;;;;;;5.88;2.08;;;;;;;;;;5073656;28;20040;-77
2023/08/03 01:06:20;;;;;;;4.22;2.15;;;;;;;;;;5091805;28;20102;-77
2023/08/03 01:08:47;;;;;;;5.80;2.00;;;;;;;;;;5092317;28;20188;-78
2023/08/03 01:11:13;;;;;;;3.88;1.80;;;;;;;;;;5054625;28;20051;-77
2023/08/03 01:13:39;;;;;;;5.30;1.80;;;;;;;;;;5057707;28;20100;-77
2023/08/03 01:16:09;;;;;;;3.60;1.80;;;;;;;;;;5074657;28;20059;-77
2023/08/03 01:18:36;;;;;;;4.88;1.80;;;;;;;;;;5095367;28;20072;-77
2023/08/03 01:21:03;;;;;;;6.60;2.03;;;;;;;;;;5076966;28;20389;-77
2023/08/03 01:23:29;;;;;;;4.72;1.98;;;;;;;;;;5093017;28;20055;-77
2023/08/03 01:25:56;;;;;;;5.00;2.03;;;;;;;;;;5094894;28;20123;-77
2023/08/03 01:28:22;;;;;;;4.57;2.00;;;;;;;;;;5060118;28;20040;-77
2023/08/03 01:30:48;;;;;;;5.43;1.98;;;;;;;;;;5094829;28;20051;-77
2023/08/03 01:33:14;;;;;;;3.92;1.90;;;;;;;;;;5094733;28;20048;-77
2023/08/03 01:35:40;;;;;;;5.00;2.20;;;;;;;;;;5094496;28;20044;-77
2023/08/03 01:38:07;;;;;;;7.22;2.00;;;;;;;;;;5094099;28;20052;-77
2023/08/03 01:40:33;;;;;;;5.72;2.10;;;;;;;;;;5059333;28;20040;-77
2023/08/03 01:42:59;;;;;;;5.60;2.28;;;;;;;;;;5094267;28;20052;-77
2023/08/03 01:45:25;;;;;;;6.90;2.08;;;;;;;;;;5092291;28;20044;-77
2023/08/03 01:47:52;;;;;;;4.05;2.10;;;;;;;;;;5093635;28;20059;-77
2023/08/03 01:50:19;;;;;;;7.07;2.33;;;;;;;;;;5094480;28;20041;-77
2023/08/03 01:52:47;;;;;;;5.43;2.30;;;;;;;;;;5094481;28;20040;-77
2023/08/03 01:55:14;;;;;;;5.15;2.17;;;;;;;;;;5076130;28;20059;-77
2023/08/03 01:57:40;;;;;;;5.88;2.10;;;;;;;;;;5094482;28;20040;-77
2023/08/03 02:00:07;;;;;;;6.13;2.00;;;;;;;;;;5094084;28;20036;-77
2023/08/03 02:02:33;;;;;;;5.28;2.17;;;;;;;;;;5076047;28;20101;-77
2023/08/03 02:04:59;;;;;;;4.15;2.00;;;;;;;;;;5093819;28;20122;-77
2023/08/03 02:07:41;;;;;;;6.28;1.90;;;;;;;;;;5094331;28;20146;-76
2023/08/03 02:10:08;;;;;;;6.25;1.95;;;;;;;;;;5094177;28;20130;-77
2023/08/03 02:12:34;;;;;;;6.50;2.03;;;;;;;;;;5074676;28;20044;-77
2023/08/03 02:15:00;;;;;;;3.40;1.80;;;;;;;;;;5073862;28;20037;-78
2023/08/03 02:17:27;;;;;;;5.32;2.00;;;;;;;;;;5063753;28;20550;-78
2023/08/03 02:19:55;;;;;;;4.28;1.90;;;;;;;;;;5076054;28;20040;-77
2023/08/03 02:22:21;;;;;;;4.72;1.85;;;;;;;;;;5093940;28;20032;-77
2023/08/03 02:24:47;;;;;;;4.90;1.70;;;;;;;;;;5076179;28;20366;-76
2023/08/03 02:27:13;;;;;;;4.95;1.90;;;;;;;;;;5092924;28;20035;-77
2023/08/03 02:29:40;;;;;;;6.03;2.00;;;;;;;;;;5075915;28;20112;-76
2023/08/03 02:32:06;;;;;;;4.15;2.00;;;;;;;;;;5093855;28;20044;-77
2023/08/03 02:34:32;;;;;;;3.72;1.52;;;;;;;;;;5092744;28;20083;-76
2023/08/03 02:36:58;;;;;;;2.45;1.63;;;;;;;;;;5092064;28;20044;-77
2023/08/03 02:39:24;;;;;;;2.65;1.40;;;;;;;;;;5092988;28;20396;-76
2023/08/03 02:41:52;;;;;;;2.78;1.60;;;;;;;;;;5093383;28;20059;-77
2023/08/03 02:44:18;;;;;;;3.72;1.70;;;;;;;;;;5093433;28;20067;-77
2023/08/03 02:46:45;;;;;;;3.45;1.70;;;;;;;;;;5093242;28;20149;-77
2023/08/03 02:49:11;;;;;;;2.63;1.55;;;;;;;;;;5093567;28;20059;-77
2023/08/03 02:51:37;;;;;;;4.72;1.80;;;;;;;;;;5092652;28;20392;-77
2023/08/03 02:54:03;;;;;;;3.28;1.40;;;;;;;;;;5069432;28;20051;-76
2023/08/03 02:56:29;;;;;;;3.33;1.80;;;;;;;;;;5093269;28;20133;-77
2023/08/03 02:58:55;;;;;;;3.60;1.70;;;;;;;;;;5092845;28;20190;-76
2023/08/03 03:01:22;;;;;;;6.10;1.85;;;;;;;;;;5092588;28;20465;-76
2023/08/03 03:03:48;;;;;;;2.20;1.70;;;;;;;;;;5089601;28;20040;-76
2023/08/03 03:06:14;;;;;;;3.35;1.88;;;;;;;;;;5084327;28;20118;-77
2023/08/03 03:08:40;;;;;;;4.25;1.90;;;;;;;;;;5093210;28;20051;-77
2023/08/03 03:11:06;;;;;;;3.88;2.08;;;;;;;;;;5092324;28;20119;-77
2023/08/03 03:13:32;;;;;;;3.97;1.92;;;;;;;;;;5093156;28;20123;-77
2023/08/03 03:15:58;;;;;;;4.65;2.22;;;;;;;;;;5092632;28;20543;-77
2023/08/03 03:18:24;;;;;;;4.20;2.47;;;;;;;;;;5092073;28;20135;-77
2023/08/03 03:20:50;;;;;;;3.88;2.50;;;;;;;;;;5091977;28;20477;-77
2023/08/03 03:23:16;;;;;;;5.13;2.65;;;;;;;;;;5074591;28;20040;-76
2023/08/03 03:25:42;;;;;;;4.93;2.53;;;;;;;;;;5057827;28;20044;-77
2023/08/03 03:28:08;;;;;;;5.60;2.80;;;;;;;;;;5073929;28;20048;-77
2023/08/03 03:30:35;;;;;;;4.13;2.83;;;;;;;;;;5091822;28;20507;-77
2023/08/03 03:33:01;;;;;;;5.07;2.88;;;;;;;;;;5092929;28;20075;-77
2023/08/03 03:35:27;;;;;;;4.88;2.78;;;;;;;;;;5091619;28;20036;-77
2023/08/03 03:37:53;;;;;;;8.52;3.20;;;;;;;;;;5092363;28;20044;-77
2023/08/03 03:40:19;;;;;;;4.78;2.55;;;;;;;;;;5091999;28;20117;-76
2023/08/03 03:42:45;;;;;;;4.57;3.10;;;;;;;;;;5092517;28;20040;-78
2023/08/03 03:45:11;;;;;;;8.00;3.13;;;;;;;;;;5092598;28;20048;-74
2023/08/03 03:47:37;;;;;;;6.88;3.20;;;;;;;;;;5097165;28;20040;-75
2023/08/03 03:50:04;;;;;;;6.18;3.30;;;;;;;;;;5095823;28;20561;-76
2023/08/03 03:52:30;;;;;;;6.15;3.70;;;;;;;;;;5073986;28;20081;-76
2023/08/03 03:54:56;;;;;;;5.75;3.55;;;;;;;;;;5092258;28;20058;-76
2023/08/03 03:57:22;;;;;;;6.63;3.78;;;;;;;;;;5074178;28;20047;-77
2023/08/03 03:59:48;;;;;;;5.32;3.47;;;;;;;;;;5092096;28;20141;-76
2023/08/03 04:02:14;;;;;;;9.45;4.28;;;;;;;;;;5057411;28;20048;-75
2023/08/03 04:04:40;;;;;;;5.72;3.95;;;;;;;;;;5089572;28;20048;-76
2023/08/03 04:07:06;;;;;;;6.50;4.00;;;;;;;;;;5074011;28;20444;-75
2023/08/03 04:09:33;;;;;;;8.48;4.88;;;;;;;;;;5091932;28;20036;-76
2023/08/03 04:11:59;;;;;;;7.30;4.35;;;;;;;;;;5056589;28;20140;-76
2023/08/03 04:14:25;;;;;;;6.65;4.45;;;;;;;;;;5076706;28;20036;-77
2023/08/03 04:16:52;;;;;;;8.55;4.30;;;;;;;;;;5092527;28;20401;-76
2023/08/03 04:19:18;;;;;;;6.32;4.75;;;;;;;;;;5092632;28;20516;-77
2023/08/03 04:21:44;;;;;;;6.20;4.82;;;;;;;;;;5092471;28;20036;-76
2023/08/03 04:24:10;;;;;;;8.48;5.95;;;;;;;;;;5090772;28;20441;-77
2023/08/03 04:26:36;;;;;;;7.35;5.40;;;;;;;;;;5092139;28;20369;-77
2023/08/03 04:29:02;;;;;;;8.82;5.30;;;;;;;;;;5074275;28;20139;-77
2023/08/03 04:31:29;;;;;;;11.30;5.95;;;;;;;;;;5091403;28;20451;-77
2023/08/03 04:33:55;;;;;;;10.07;6.10;;;;;;;;;;5092217;28;20048;-76
2023/08/03 04:36:21;;;;;;;9.10;6.38;;;;;;;;;;5091441;28;20036;-76
2023/08/03 04:38:47;;;;;;;9.40;5.82;;;;;;;;;;5091762;28;20040;-76
2023/08/03 04:41:14;;;;;;;9.82;6.53;;;;;;;;;;5073575;28;20135;-77
2023/08/03 04:43:42;;;;;;;8.18;5.63;;;;;;;;;;5091461;28;20461;-76
2023/08/03 04:46:08;;;;;;;8.25;6.00;;;;;;;;;;5090483;28;20063;-76
2023/08/03 04:48:34;;;;;;;8.80;6.25;;;;;;;;;;5087386;28;20417;-76
2023/08/03 04:51:00;;;;;;;10.48;6.35;;;;;;;;;;5072842;28;20043;-76
2023/08/03 04:53:26;;;;;;;11.63;6.20;;;;;;;;;;5087423;28;20107;-75
2023/08/03 04:55:52;;;;;;;11.50;6.13;;;;;;;;;;5095471;28;20126;-78
2023/08/03 04:58:19;;;;;;;10.63;5.90;;;;;;;;;;5095939;28;20486;-77
2023/08/03 05:00:45;;;;;;;9.80;5.78;;;;;;;;;;5095520;28;20507;-77
2023/08/03 05:03:11;;;;;;;10.60;6.28;;;;;;;;;;5095877;28;20150;-75
2023/08/03 05:05:37;;;;;;;9.13;5.53;;;;;;;;;;5094556;28;20046;-76
2023/08/03 05:08:03;;;;;;;13.13;5.50;;;;;;;;;;5095663;28;20044;-78
2023/08/03 05:10:29;;;;;;;10.10;5.05;;;;;;;;;;5076918;28;20050;-76
2023/08/03 05:12:55;;;;;;;9.43;5.03;;;;;;;;;;5095742;28;20517;-76
2023/08/03 05:15:21;;;;;;;10.07;4.97;;;;;;;;;;5094819;28;20048;-77
2023/08/03 05:17:49;;;;;;;11.98;5.47;;;;;;;;;;5094208;28;20134;-77
2023/08/03 05:20:16;;;;;;;10.23;5.70;;;;;;;;;;5094441;28;20240;-77
2023/08/03 05:22:42;;;;;;;14.63;6.30;;;;;;;;;;5093120;28;20139;-77
2023/08/03 05:25:08;;;;;;;9.82;6.00;;;;;;;;;;5091682;28;20119;-75
2023/08/03 05:27:34;;;;;;;12.57;6.65;;;;;;;;;;5093136;28;20040;-74
2023/08/03 05:30:00;;;;;;;11.95;7.13;;;;;;;;;;5092599;28;20039;-74
2023/08/03 05:32:26;;;;;;;11.95;7.15;;;;;;;;;;5093520;28;20047;-76
2023/08/03 05:34:53;;;;;;;10.77;7.03;;;;;;;;;;5056761;28;20099;-75
2023/08/03 05:37:19;;;;;;;9.82;6.80;;;;;;;;;;5082693;28;20039;-76
2023/08/03 05:39:45;;;;;;;8.63;6.70;;;;;;;;;;5094362;28;20400;-75
2023/08/03 05:42:15;;;;;;;10.90;6.95;;;;;;;;;;5094865;28;20044;-75
2023/08/03 05:44:41;;;;;;;9.52;6.35;;;;;;;;;;5076772;28;20048;-75
2023/08/03 05:47:10;;;;;;;10.77;6.75;;;;;;;;;;5094451;28;20048;-75
2023/08/03 05:49:36;;;;;;;10.65;6.78;;;;;;;;;;5094446;28;20048;-75
2023/08/03 05:52:03;;;;;;;9.57;5.88;;;;;;;;;;5093603;28;20044;-75
2023/08/03 05:54:29;;;;;;;8.30;5.53;;;;;;;;;;5093753;28;20052;-75
2023/08/03 05:56:55;;;;;;;7.50;5.55;;;;;;;;;;5094538;28;20606;-75
2023/08/03 05:59:24;;;;;;;6.68;4.97;;;;;;;;;;5094503;28;20093;-75
2023/08/03 06:01:52;;;;;;;7.32;5.65;;;;;;;;;;5093782;28;20079;-75
2023/08/03 06:04:19;;;;;;;6.90;5.38;;;;;;;;;;5086411;28;20045;-75
2023/08/03 06:06:46;;;;;;;6.65;5.10;;;;;;;;;;5078352;28;20499;-75
2023/08/03 06:09:13;;;;;;;6.43;5.53;;;;;;;;;;5094478;28;20505;-75
2023/08/03 06:11:40;;;;;;;6.53;5.40;;;;;;;;;;5093624;28;20405;-76
2023/08/03 06:14:07;;;;;;;6.10;5.40;;;;;;;;;;5067737;28;20058;-75
2023/08/03 06:16:33;;;;;;;5.85;4.65;;;;;;;;;;5073653;28;20117;-74
2023/08/03 06:18:59;;;;;;;5.93;4.93;;;;;;;;;;5089185;28;20502;-75
2023/08/03 06:21:26;;;;;;;6.80;4.85;;;;;;;;;;5058747;28;20148;-75
2023/08/03 06:23:53;;;;;;;6.18;4.68;;;;;;;;;;5093910;28;20488;-76
2023/08/03 06:26:20;;;;;;;8.60;4.75;;;;;;;;;;5093511;28;20051;-76
2023/08/03 06:28:49;;;;;;;6.55;4.60;;;;;;;;;;5092835;28;20044;-75
2023/08/03 06:31:16;;;;;;;5.53;4.70;;;;;;;;;;5092473;28;20044;-76
2023/08/03 06:33:43;;;;;;;7.57;5.07;;;;;;;;;;5092973;28;20044;-75
2023/08/03 06:36:12;;;;;;;5.50;4.55;;;;;;;;;;5093110;28;20036;-76
2023/08/03 06:38:38;;;;;;;5.25;4.28;;;;;;;;;;5093350;28;20381;-76
2023/08/03 06:41:04;;;;;;;6.28;4.20;;;;;;;;;;5093079;28;20118;-76
2023/08/03 06:43:31;;;;;;;5.95;4.10;;;;;;;;;;5093589;28;20044;-75
2023/08/03 06:45:57;;;;;;;6.28;3.67;;;;;;;;;;5092839;28;20044;-76
2023/08/03 06:48:23;;;;;;;5.10;4.00;;;;;;;;;;5075330;28;20044;-76
2023/08/03 06:50:49;;;;;;;5.47;3.55;;;;;;;;;;5093053;28;20127;-76
2023/08/03 06:53:15;;;;;;;6.20;3.53;;;;;;;;;;5092934;28;20048;-76
2023/08/03 06:55:46;;;;;;;5.93;4.30;;;;;;;;;;5091894;28;20109;-76
2023/08/03 06:58:13;;;;;;;6.63;3.30;;;;;;;;;;5092820;28;20111;-76
2023/08/03 07:00:41;;;;;;;4.78;2.80;;;;;;;;;;5092767;28;20042;-75
2023/08/03 07:03:07;;;;;;;4.53;2.42;;;;;;;;;;5074950;28;20106;-76
2023/08/03 07:05:33;;;;;;;4.70;2.47;;;;;;;;;;5090873;28;20122;-75
2023/08/03 07:07:59;;;;;;;3.50;2.60;;;;;;;;;;5092139;28;20388;-75
2023/08/03 07:10:25;;;;;;;3.55;2.70;;;;;;;;;;5092293;28;20063;-75
2023/08/03 07:12:52;;;;;;;7.43;2.85;;;;;;;;;;5093857;28;20051;-75
2023/08/03 07:15:19;;;;;;;5.22;2.63;;;;;;;;;;5102969;28;20047;-75
2023/08/03 07:17:46;;;;;;;3.45;2.50;;;;;;;;;;5099472;28;20075;-75
2023/08/03 07:20:12;;;;;;;3.90;2.35;;;;;;;;;;5093504;28;20046;-75
2023/08/03 07:22:38;;;;;;;3.00;2.20;;;;;;;;;;5092408;28;20365;-76
2023/08/03 07:25:05;;;;;;;4.53;2.30;;;;;;;;;;5092111;28;20039;-75
2023/08/03 07:27:31;;;;;;;5.30;2.38;;;;;;;;;;5090869;28;20062;-75
2023/08/03 07:29:57;;;;;;;3.42;2.10;;;;;;;;;;5091562;28;20558;-76
2023/08/03 07:32:24;;;;;;;4.25;2.22;;;;;;;;;;5090760;28;20040;-76
2023/08/03 07:34:50;;;;;;;4.18;1.88;;;;;;;;;;5092465;28;20044;-78
2023/08/03 07:37:16;;;;;;;4.82;2.20;;;;;;;;;;5092830;28;20036;-77
2023/08/03 07:39:42;;;;;;;5.75;2.00;;;;;;;;;;5091636;28;20128;-76
2023/08/03 07:42:08;;;;;;;4.32;1.70;;;;;;;;;;5091990;28;20051;-76
2023/08/03 07:44:35;;;;;;;4.53;1.85;;;;;;;;;;5072921;28;20059;-76
2023/08/03 07:47:01;;;;;;;4.50;1.60;;;;;;;;;;5078134;28;20044;-76
2023/08/03 07:49:27;;;;;;;5.35;1.60;;;;;;;;;;5092606;28;20083;-76
2023/08/03 07:51:53;;;;;;;7.47;1.45;;;;;;;;;;5092323;28;20521;-76
2023/08/03 07:54:19;;;;;;;6.40;1.40;;;;;;;;;;5092682;28;20464;-76
2023/08/03 07:56:45;;;;;;;3.13;1.40;;;;;;;;;;5091744;28;20040;-77
2023/08/03 07:59:12;;;;;;;5.07;1.40;;;;;;;;;;5090391;28;20039;-76
2023/08/03 08:01:39;;;;;;;5.63;1.60;;;;;;;;;;5092132;28;20507;-78
2023/08/03 08:04:05;;;;;;;4.50;1.40;;;;;;;;;;5067175;28;20056;-77
2023/08/03 08:06:31;;;;;;;7.35;1.70;;;;;;;;;;5070947;28;20048;-78
2023/08/03 08:08:57;;;;;;;5.30;1.55;;;;;;;;;;5091023;28;20131;-76
2023/08/03 08:11:23;;;;;;;2.67;1.35;;;;;;;;;;5074033;28;20082;-77
2023/08/03 08:13:50;;;;;;;3.58;1.65;;;;;;;;;;5091689;28;20060;-77
2023/08/03 08:16:16;;;;;;;3.95;1.52;;;;;;;;;;5091135;28;20040;-77
2023/08/03 08:18:42;;;;;;;5.65;1.70;;;;;;;;;;5092533;28;20075;-77
2023/08/03 08:21:10;;;;;;;4.30;1.60;;;;;;;;;;5091913;28;20545;-77
2023/08/03 08:23:37;;;;;;;3.42;1.23;;;;;;;;;;5092217;28;20123;-77
2023/08/03 08:26:13;;;;;;;6.47;1.48;;;;;;;;;;5094949;28;20032;-77
2023/08/03 08:28:39;;;;;;;4.68;1.63;;;;;;;;;;5096749;28;20181;-78
2023/08/03 08:31:05;;;;;;;6.80;1.60;;;;;;;;;;5095901;28;20048;-79
2023/08/03 08:33:32;;;;;;;5.72;1.80;;;;;;;;;;5095936;28;20051;-77
2023/08/03 08:35:58;;;;;;;5.10;1.42;;;;;;;;;;5077625;28;20048;-78
2023/08/03 08:38:24;;;;;;;4.95;1.33;;;;;;;;;;5078100;28;20093;-79
2023/08/03 08:40:51;;;;;;;4.78;1.38;;;;;;;;;;5077551;28;20476;-77
2023/08/03 08:43:18;;;;;;;4.93;1.50;;;;;;;;;;5077807;28;20040;-78
2023/08/03 08:45:45;;;;;;;5.13;1.70;;;;;;;;;;5094318;28;20046;-78
2023/08/03 08:48:11;;;;;;;5.97;1.60;;;;;;;;;;5096105;28;20126;-78
2023/08/03 08:50:37;;;;;;;4.18;1.33;;;;;;;;;;5095869;28;20048;-79
2023/08/03 08:53:03;;;;;;;4.25;1.58;;;;;;;;;;5095920;28;20097;-77
2023/08/03 08:55:30;;;;;;;2.97;1.25;;;;;;;;;;5095672;28;20067;-76
2023/08/03 08:57:58;;;;;;;6.55;1.58;;;;;;;;;;5094336;28;20047;-77
2023/08/03 09:00:25;;;;;;;5.40;1.55;;;;;;;;;;5094929;28;20040;-77
2023/08/03 09:02:55;;;;;;;5.88;1.50;;;;;;;;;;5095606;28;20341;-76
2023/08/03 09:05:23;;;;;;;5.70;1.50;;;;;;;;;;5076499;28;20155;-76
2023/08/03 09:08:01;;;;;;;6.18;1.52;;;;;;;;;;5055927;28;20400;-76
2023/08/03 09:10:27;;;;;;;6.20;1.83;;;;;;;;;;5072964;28;20171;-77
2023/08/03 09:12:54;;;;;;;5.10;1.70;;;;;;;;;;5075317;28;20097;-77
2023/08/03 09:15:36;;;;;;;5.85;1.77;;;;;;;;;;5074809;28;20123;-77
2023/08/03 09:18:05;;;;;;;5.85;1.90;;;;;;;;;;5075113;28;20044;-77
2023/08/03 09:20:31;;;;;;;6.63;1.48;;;;;;;;;;5074940;28;20047;-77
2023/08/03 09:22:58;;;;;;;7.00;1.83;;;;;;;;;;5075368;28;20102;-77
2023/08/03 09:25:24;;;;;;;8.90;2.20;;;;;;;;;;5074697;28;20405;-77
2023/08/03 09:27:51;;;;;;;6.68;1.90;;;;;;;;;;5074913;28;20094;-76
2023/08/03 09:30:18;;;;;;;7.85;2.00;;;;;;;;;;5074828;28;20040;-77
2023/08/03 09:32:46;;;;;;;6.18;1.90;;;;;;;;;;5074924;28;20098;-77
2023/08/03 09:35:22;;;;;;;7.65;1.95;;;;;;;;;;5074824;28;20053;-77
2023/08/03 09:37:48;;;;;;;5.60;1.85;;;;;;;;;;5056333;28;20044;-77
2023/08/03 09:40:17;;;;;;;9.95;2.40;;;;;;;;;;5074552;28;20033;-76
2023/08/03 09:42:44;;;;;;;9.50;2.25;;;;;;;;;;5075169;28;20052;-77
2023/08/03 09:45:11;;;;;;;8.18;2.22;;;;;;;;;;5056558;28;20431;-77
2023/08/03 09:47:39;;;;;;;6.05;2.05;;;;;;;;;;5074670;28;20056;-77
2023/08/03 09:50:06;;;;;;;8.23;1.88;;;;;;;;;;5074387;28;20093;-76
2023/08/03 09:52:32;;;;;;;7.18;2.00;;;;;;;;;;5074639;28;20127;-76
2023/08/03 09:55:12;;;;;;;6.95;2.15;;;;;;;;;;5074124;28;20068;-77
2023/08/03 09:57:43;;;;;;;8.90;2.17;;;;;;;;;;5074611;28;20055;-77
2023/08/03 10:00:12;;;;;;;8.93;1.98;;;;;;;;;;5055489;28;20068;-76
2023/08/03 10:02:47;;;;;;;7.55;2.00;;;;;;;;;;5073780;28;20032;-77
2023/08/03 10:05:17;;;;;;;6.57;1.70;;;;;;;;;;5073074;28;20044;-77
2023/08/03 10:07:48;;;;;;;6.60;1.70;;;;;;;;;;5074023;28;20113;-77
2023/08/03 10:10:16;;;;;;;5.50;1.60;;;;;;;;;;5073566;28;20055;-77
2023/08/03 10:12:45;;;;;;;6.63;1.60;;;;;;;;;;5073675;28;20047;-78
2023/08/03 10:15:12;;;;;;;9.40;1.55;;;;;;;;;;5073187;28;20116;-77
2023/08/03 10:17:39;;;;;;;8.48;1.52;;;;;;;;;;5077715;28;20040;-77
2023/08/03 10:20:07;;;;;;;5.18;1.65;;;;;;;;;;5075880;28;20495;-77
2023/08/03 10:22:33;;;;;;;6.03;1.73;;;;;;;;;;5093939;28;20059;-77
2023/08/03 10:25:16;;;;;;;7.90;2.20;;;;;;;;;;5093652;28;20256;-76
2023/08/03 10:28:03;;;;;;;9.88;2.22;;;;;;;;;;5094036;28;20543;-77
2023/08/03 10:30:47;;;;;;;11.65;2.30;;;;;;;;;;5093575;28;20036;-77
2023/08/03 10:33:13;;;;;;;11.52;2.50;;;;;;;;;;5094002;28;20066;-77
2023/08/03 10:35:40;;;;;;;11.52;2.33;;;;;;;;;;5093279;28;20435;-78
2023/08/03 10:38:18;;;;;;;9.25;2.38;;;;;;;;;;5076078;28;20036;-78
2023/08/03 10:40:44;;;;;;;11.57;2.47;;;;;;;;;;5093687;28;20128;-77
2023/08/03 10:43:10;;;;;;;10.18;2.38;;;;;;;;;;5077763;28;20028;-76
2023/08/03 10:45:37;;;;;;;7.75;2.47;;;;;;;;;;5078059;28;20180;-77
2023/08/03 10:48:21;;;;;;;9.68;2.78;;;;;;;;;;5077686;28;20136;-78
2023/08/03 10:50:57;;;;;;;8.73;2.80;;;;;;;;;;5073279;28;20045;-76
2023/08/03 10:53:23;;;;;;;6.70;2.15;;;;;;;;;;5072222;28;20439;-76
2023/08/03 10:55:50;;;;;;;7.95;2.20;;;;;;;;;;5072724;28;20045;-76
2023/08/03 10:58:17;;;;;;;6.85;1.80;;;;;;;;;;5073540;28;20055;-76
2023/08/03 11:00:43;;;;;;;7.32;1.85;;;;;;;;;;5071559;28;20554;-76
2023/08/03 11:03:09;;;;;;;5.00;1.65;;;;;;;;;;5073234;28;20048;-75
2023/08/03 11:05:36;;;;;;;8.70;2.17;;;;;;;;;;5072323;28;20496;-76
2023/08/03 11:08:02;;;;;;;6.22;1.95;;;;;;;;;;5073267;28;20044;-76
2023/08/03 11:10:41;;;;;;;6.03;1.63;;;;;;;;;;5170811;27;20334;-76
2023/08/03 11:13:07;;;;;;;4.72;1.70;;;;;;;;;;5151066;27;20104;-77
2023/08/03 11:15:33;;;;;;;6.30;1.90;;;;;;;;;;5151026;27;20504;-77
2023/08/03 11:17:59;;;;;;;3.42;1.33;;;;;;;;;;5151575;27;20146;-76
2023/08/03 11:20:25;;;;;;;5.50;1.70;;;;;;;;;;5151223;27;20485;-77
2023/08/03 11:22:52;;;;;;;5.40;1.48;;;;;;;;;;5151724;27;20039;-77
2023/08/03 11:25:19;;;;;;;6.68;1.67;;;;;;;;;;5151004;27;20035;-76
2023/08/03 11:27:46;;;;;;;6.47;1.45;;;;;;;;;;5133014;27;20411;-76
2023/08/03 11:30:12;;;;;;;4.75;1.40;;;;;;;;;;5150895;27;20049;-77
2023/08/03 11:32:39;;;;;;;3.60;1.42;;;;;;;;;;5132865;27;20118;-77
2023/08/03 11:35:07;;;;;;;4.15;1.60;;;;;;;;;;5115652;27;20129;-77
2023/08/03 11:37:34;;;;;;;7.05;1.33;;;;;;;;;;5151429;27;20110;-78
2023/08/03 11:40:03;;;;;;;5.25;1.45;;;;;;;;;;5150853;27;20464;-78
2023/08/03 11:42:31;;;;;;;2.50;1.10;;;;;;;;;;5132638;27;20039;-76
2023/08/03 11:44:57;;;;;;;3.17;1.23;;;;;;;;;;5150373;27;20050;-76
2023/08/03 11:47:23;;;;;;;4.03;1.30;;;;;;;;;;5150748;27;20039;-76
2023/08/03 11:49:51;;;;;;;5.82;1.45;;;;;;;;;;5131681;27;20084;-76
2023/08/03 11:52:21;;;;;;;3.85;1.17;;;;;;;;;;5149839;27;20126;-76
2023/08/03 11:54:48;;;;;;;5.15;1.30;;;;;;;;;;5127510;27;20134;-76
2023/08/03 11:59:59;;;;;;;;;;;;;;;;;;5150894;27;20118;-77
2023/08/03 12:02:44;;;;;;;3.42;1.10;;;;;;;;;;5150571;27;19922;-77
2023/08/03 12:05:10;;;;;;;3.57;1.20;;;;;;;;;;5135077;27;20054;-77
2023/08/03 12:07:37;;;;;;;5.43;1.92;;;;;;;;;;5130204;28;20156;-77
2023/08/03 12:10:11;;;;;;;5.05;1.67;;;;;;;;;;5129155;27;20112;-77
2023/08/03 12:12:37;;;;;;;5.18;1.52;;;;;;;;;;5111078;27;20047;-78
2023/08/03 12:15:03;;;;;;;3.17;1.33;;;;;;;;;;5127750;27;20122;-78
2023/08/03 12:17:29;;;;;;;5.85;1.40;;;;;;;;;;5129934;28;20043;-78
2023/08/03 12:19:55;;;;;;;4.82;1.58;;;;;;;;;;5127346;28;20550;-78
2023/08/03 12:22:22;;;;;;;6.43;1.90;;;;;;;;;;5115747;28;20083;-77
2023/08/03 12:24:48;;;;;;;5.65;1.80;;;;;;;;;;5115547;28;20079;-74
2023/08/03 12:27:14;;;;;;;7.80;1.98;;;;;;;;;;5115564;28;20089;-73
2023/08/03 12:29:40;;;;;;;6.25;1.77;;;;;;;;;;5115493;28;20136;-73
2023/08/03 12:32:07;;;;;;;7.43;2.00;;;;;;;;;;5096622;28;20048;-72
2023/08/03 12:34:33;;;;;;;8.13;1.80;;;;;;;;;;5114982;28;20415;-73
2023/08/03 12:37:00;;;;;;;7.95;2.15;;;;;;;;;;5097686;28;20130;-73
2023/08/03 12:39:26;;;;;;;6.03;1.77;;;;;;;;;;5115171;28;20136;-73
2023/08/03 12:41:52;;;;;;;7.85;1.90;;;;;;;;;;5113983;28;20055;-73
2023/08/03 12:44:18;;;;;;;6.60;1.75;;;;;;;;;;5115357;28;20378;-73
2023/08/03 12:46:44;;;;;;;6.25;1.65;;;;;;;;;;5096890;28;20234;-73
2023/08/03 12:49:10;;;;;;;6.80;1.73;;;;;;;;;;5115207;28;20081;-73
2023/08/03 12:51:37;;;;;;;4.13;1.48;;;;;;;;;;5115062;28;20051;-73
2023/08/03 12:54:06;;;;;;;7.47;1.83;;;;;;;;;;5097048;28;20058;-74
2023/08/03 12:56:36;;;;;;;6.55;1.90;;;;;;;;;;5114732;28;20400;-73
2023/08/03 12:59:03;;;;;;;8.57;2.03;;;;;;;;;;5113706;28;20043;-73
2023/08/03 13:01:30;;;;;;;6.05;1.90;;;;;;;;;;5115163;28;20122;-73
2023/08/03 13:03:56;;;;;;;10.77;2.30;;;;;;;;;;5118969;27;20493;-73
2023/08/03 13:06:22;;;;;;;8.13;2.28;;;;;;;;;;5135270;27;20130;-73
2023/08/03 13:08:48;;;;;;;9.98;2.22;;;;;;;;;;5135264;27;20050;-73
2023/08/03 13:11:15;;;;;;;8.90;2.10;;;;;;;;;;5134970;27;20113;-73
2023/08/03 13:13:41;;;;;;;8.77;2.30;;;;;;;;;;5135713;27;20046;-73
2023/08/03 13:16:08;;;;;;;8.27;2.35;;;;;;;;;;5116013;27;20078;-73
2023/08/03 13:18:34;;;;;;;9.35;2.17;;;;;;;;;;5133346;27;20050;-73
2023/08/03 13:21:00;;;;;;;10.77;2.90;;;;;;;;;;5133470;27;20051;-73
2023/08/03 13:23:26;;;;;;;7.78;2.25;;;;;;;;;;5115423;27;20045;-73
2023/08/03 13:25:53;;;;;;;10.50;2.40;;;;;;;;;;5134021;27;20046;-73
2023/08/03 13:28:19;;;;;;;8.02;2.58;;;;;;;;;;5134962;27;20039;-73
2023/08/03 13:30:45;;;;;;;11.88;2.75;;;;;;;;;;5134829;27;20051;-73
2023/08/03 13:33:12;;;;;;;9.52;2.58;;;;;;;;;;5134348;27;20092;-73
2023/08/03 13:35:38;;;;;;;8.82;2.95;;;;;;;;;;5115641;27;20043;-72
2023/08/03 13:38:04;;;;;;;11.52;2.75;;;;;;;;;;5134777;27;20096;-74
2023/08/03 13:40:30;;;;;;;10.70;3.60;;;;;;;;;;5134351;27;20092;-74
2023/08/03 13:42:56;;;;;;;12.98;3.25;;;;;;;;;;5134521;27;20495;-74
2023/08/03 13:45:23;;;;;;;6.93;2.65;;;;;;;;;;5134400;27;20043;-73
2023/08/03 13:47:49;;;;;;;7.72;2.70;;;;;;;;;;5116088;27;20089;-73
2023/08/03 13:50:15;;;;;;;9.23;2.60;;;;;;;;;;5134361;27;20090;-73
2023/08/03 13:52:42;;;;;;;8.27;2.60;;;;;;;;;;5134553;27;20035;-73
2023/08/03 13:55:08;;;;;;;9.68;2.88;;;;;;;;;;5133964;27;20054;-72
2023/08/03 13:57:34;;;;;;;10.23;2.75;;;;;;;;;;5134689;27;20046;-72
2023/08/03 14:00:00;;;;;;;7.32;2.60;;;;;;;;;;5134242;27;20043;-73
2023/08/03 14:02:26;;;;;;;10.30;2.90;;;;;;;;;;5134499;27;20047;-73
2023/08/03 14:04:52;;;;;;;12.02;2.90;;;;;;;;;;5103136;28;20118;-73
2023/08/03 14:07:19;;;;;;;15.32;3.30;;;;;;;;;;5113884;28;20341;-74
2023/08/03 14:09:46;;;;;;;10.65;2.83;;;;;;;;;;5112946;28;20048;-74
2023/08/03 14:12:13;;;;;;;10.98;3.17;;;;;;;;;;5113285;28;20047;-72
2023/08/03 14:14:39;;;;;;;13.07;3.30;;;;;;;;;;5114650;27;20047;-73
2023/08/03 14:17:05;;;;;;;14.98;3.72;;;;;;;;;;5134727;27;20087;-73
2023/08/03 14:19:31;;;;;;;10.77;2.97;;;;;;;;;;5107841;28;20047;-72
2023/08/03 14:21:57;;;;;;;16.25;3.90;;;;;;;;;;5120443;28;20484;-73
2023/08/03 14:24:24;;;;;;;13.65;3.70;;;;;;;;;;5114587;28;20116;-73
2023/08/03 14:26:50;;;;;;;12.98;3.60;;;;;;;;;;5113568;28;20383;-73
2023/08/03 14:29:17;;;;;;;13.48;4.13;;;;;;;;;;5113315;28;20476;-73
2023/08/03 14:31:43;;;;;;;11.55;2.88;;;;;;;;;;5095431;28;20035;-74
2023/08/03 14:34:09;;;;;;;12.35;3.67;;;;;;;;;;5078486;28;20051;-74
2023/08/03 14:36:35;;;;;;;15.60;3.90;;;;;;;;;;5095072;28;20484;-73
2023/08/03 14:39:03;;;;;;;13.27;3.65;;;;;;;;;;5113247;28;20373;-74
2023/08/03 14:41:29;;;;;;;11.63;3.53;;;;;;;;;;5113171;28;20058;-73